»·PEaware :: N800DW KPSP-KAPA

N800DW :: KPSP-KAPA

FLIGHT INFORMATION

Flight Status: Arrived
Operator: Privately registered:
United States
More flights under this callsign
Pilot: Scott L. (17677)
Aircraft: CESSNA 510 CITATION MUSTANG
(C510)
More flights by this aircraft type
Origin: KPSP Palm Springs Intl
United States
Destination: KAPA Centennial
United States
More flights between these airports :: More routes between these airports
Route: +CATH1 PSP V370 TNP EED HBU LARKS1
File this flight plan on PilotEdge
Remarks:
Altitude:
(Current/Filed)
37,000ft
Speed:
(Current/Filed)
400kts
Departed: 14-Jan-20 10:52 AM
Arrived: 14-Jan-20 12:29 PM
Distance/Time
Traveled:
657nm/1:36
Distance/Time
To Go:
Arrived

Flight Plot

Page will automatically refresh every two minutes.


Map Options




Map Legend


Flown Route
Filed Route
Departure Airport
Arrival Airport
Navaid (VOR, NDB)
Fix

Horizontal Profiles

Position Reports

Time Latitude Longitude Heading Altitude Ground
Speed
14-Jan-20 09:43 33.825353 -116.509541 90 427ft 0kts
14-Jan-20 09:43 33.825353 -116.509541 90 427ft 0kts
14-Jan-20 09:44 33.825353 -116.509541 90 427ft 0kts
14-Jan-20 09:45 33.825353 -116.509541 90 427ft 0kts
14-Jan-20 09:46 33.825353 -116.509541 90 427ft 0kts
14-Jan-20 09:47 33.825353 -116.509541 90 427ft 0kts
14-Jan-20 09:48 33.825353 -116.509541 90 427ft 0kts
14-Jan-20 09:49 33.825353 -116.509541 90 427ft 0kts
14-Jan-20 09:50 33.825353 -116.509541 90 427ft 0kts
14-Jan-20 09:51 33.825353 -116.509541 90 427ft 0kts
14-Jan-20 09:52 33.825353 -116.509541 90 427ft 0kts
14-Jan-20 09:53 33.825353 -116.509541 90 427ft 0kts
14-Jan-20 09:54 33.825353 -116.509541 90 427ft 0kts
14-Jan-20 09:55 33.825353 -116.509541 90 427ft 0kts
14-Jan-20 09:56 33.825353 -116.509541 90 427ft 0kts
14-Jan-20 09:57 33.825353 -116.509541 90 427ft 0kts
14-Jan-20 09:58 33.825353 -116.509541 90 427ft 0kts
14-Jan-20 09:59 33.825353 -116.509541 90 427ft 0kts
14-Jan-20 10:00 33.825353 -116.509541 90 427ft 0kts
14-Jan-20 10:01 33.825353 -116.509541 90 427ft 0kts
14-Jan-20 10:02 33.825353 -116.509541 90 427ft 0kts
14-Jan-20 10:03 33.825353 -116.509541 90 427ft 0kts
14-Jan-20 10:04 33.825353 -116.509541 90 427ft 0kts
14-Jan-20 10:05 33.825353 -116.509541 90 427ft 0kts
14-Jan-20 10:06 33.825353 -116.509541 90 427ft 0kts
14-Jan-20 10:07 33.825353 -116.509541 90 427ft 0kts
14-Jan-20 10:08 33.825353 -116.509541 90 427ft 0kts
14-Jan-20 10:09 33.825353 -116.509541 90 427ft 0kts
14-Jan-20 10:10 33.825353 -116.509541 90 427ft 0kts
14-Jan-20 10:11 33.825353 -116.509541 90 427ft 0kts
14-Jan-20 10:12 33.825353 -116.509541 90 427ft 0kts
14-Jan-20 10:13 33.825353 -116.509541 90 427ft 0kts
14-Jan-20 10:14 33.825353 -116.509541 90 427ft 0kts
14-Jan-20 10:15 33.825353 -116.509541 90 427ft 0kts
14-Jan-20 10:16 33.825353 -116.509541 90 427ft 0kts
14-Jan-20 10:17 33.825353 -116.509541 90 427ft 0kts
14-Jan-20 10:18 33.825353 -116.509541 90 427ft 0kts
14-Jan-20 10:19 33.825353 -116.509541 90 427ft 0kts
14-Jan-20 10:20 33.825353 -116.509541 90 427ft 0kts
14-Jan-20 10:21 33.825353 -116.509541 90 427ft 0kts
14-Jan-20 10:22 33.825353 -116.509541 90 427ft 0kts
14-Jan-20 10:23 33.825353 -116.509541 90 427ft 0kts
14-Jan-20 10:24 33.825353 -116.509541 90 427ft 0kts
14-Jan-20 10:25 33.825353 -116.509541 90 427ft 0kts
14-Jan-20 10:26 33.825353 -116.509541 90 427ft 0kts
14-Jan-20 10:27 33.825353 -116.509541 90 427ft 0kts
14-Jan-20 10:28 33.825353 -116.509541 90 427ft 0kts
14-Jan-20 10:29 33.825353 -116.509541 90 427ft 0kts
14-Jan-20 10:30 33.825339 -116.508440 90 427ft 8kts
14-Jan-20 10:31 33.824704 -116.505197 141 427ft 11kts
14-Jan-20 10:32 33.824610 -116.505110 142 427ft 12kts
14-Jan-20 10:33 33.824610 -116.505110 142 427ft 12kts
14-Jan-20 10:34 33.822106 -116.502927 143 427ft 25kts
14-Jan-20 10:35 33.818448 -116.499092 82 427ft 1kts
14-Jan-20 10:36 33.818470 -116.498869 82 427ft 0kts
14-Jan-20 10:37 33.818488 -116.498693 82 427ft 0kts
14-Jan-20 10:38 33.818833 -116.498045 320 427ft 0kts
14-Jan-20 10:39 33.818833 -116.498045 320 427ft 0kts
14-Jan-20 10:40 33.818833 -116.498045 320 427ft 0kts
14-Jan-20 10:41 33.818833 -116.498045 320 427ft 0kts
14-Jan-20 10:42 33.818833 -116.498045 320 427ft 0kts
14-Jan-20 10:43 33.818833 -116.498045 320 427ft 0kts
14-Jan-20 10:44 33.818833 -116.498045 320 427ft 0kts
14-Jan-20 10:45 33.818833 -116.498045 320 427ft 0kts
14-Jan-20 10:46 33.818833 -116.498045 320 427ft 0kts
14-Jan-20 10:47 33.818833 -116.498045 320 427ft 0kts
14-Jan-20 10:48 33.818833 -116.498045 320 427ft 0kts
14-Jan-20 10:49 33.818833 -116.498045 320 427ft 0kts
14-Jan-20 10:50 33.818833 -116.498045 320 427ft 0kts
14-Jan-20 10:51 33.836340 -116.514128 318 1051ft 161kts
14-Jan-20 10:52 33.877233 -116.553900 319 4286ft 221kts
14-Jan-20 10:53 33.932569 -116.552627 65 7442ft 270kts
14-Jan-20 10:54 33.955422 -116.463795 72 10587ft 285kts
14-Jan-20 10:55 33.976649 -116.371065 72 13701ft 289kts
14-Jan-20 10:56 33.998117 -116.276976 72 16470ft 299kts
14-Jan-20 10:57 34.020522 -116.178501 72 18965ft 309kts
14-Jan-20 10:58 34.043375 -116.077508 72 21333ft 318kts
14-Jan-20 10:59 34.067390 -115.970990 72 23257ft 335kts
14-Jan-20 11:00 34.092092 -115.860701 73 25168ft 345kts
14-Jan-20 11:01 34.122243 -115.749985 55 27088ft 345kts
14-Jan-20 11:02 34.172929 -115.651005 54 29000ft 346kts
14-Jan-20 11:03 34.223848 -115.551988 54 30912ft 345kts
14-Jan-20 11:04 34.273860 -115.454130 55 32814ft 341kts
14-Jan-20 11:05 34.323069 -115.357361 55 34724ft 332kts
14-Jan-20 11:06 34.370430 -115.263827 56 36550ft 317kts
14-Jan-20 11:07 34.417783 -115.170272 55 37153ft 349kts
14-Jan-20 11:08 34.471879 -115.063023 56 37147ft 395kts
14-Jan-20 11:09 34.531840 -114.943638 56 37144ft 428kts
14-Jan-20 11:10 34.595683 -114.816361 56 37144ft 450kts
14-Jan-20 11:11 34.661595 -114.684392 56 37145ft 464kts
14-Jan-20 11:12 34.729132 -114.548457 56 37146ft 473kts
14-Jan-20 11:13 34.797296 -114.410282 57 37150ft 477kts
14-Jan-20 11:14 34.855706 -114.291224 58 37167ft 481kts
14-Jan-20 11:15 34.924104 -114.149880 58 37163ft 484kts
14-Jan-20 11:16 34.992732 -114.007817 57 37144ft 487kts
14-Jan-20 11:17 35.061719 -113.864840 56 37143ft 489kts
14-Jan-20 11:18 35.113315 -113.757793 57 37139ft 490kts
14-Jan-20 11:19 35.162960 -113.654317 57 37140ft 491kts
14-Jan-20 11:20 35.231860 -113.510046 57 37143ft 491kts
14-Jan-20 11:21 35.300952 -113.364831 57 37146ft 492kts
14-Jan-20 11:22 35.369729 -113.219664 57 37140ft 491kts
14-Jan-20 11:23 35.438013 -113.074752 57 37170ft 490kts
14-Jan-20 11:24 35.506233 -112.929553 57 37183ft 491kts
14-Jan-20 11:25 35.574505 -112.783616 58 37186ft 493kts
14-Jan-20 11:26 35.642671 -112.637148 58 37190ft 494kts
14-Jan-20 11:27 35.710872 -112.489976 58 37193ft 495kts
14-Jan-20 11:28 35.778937 -112.342453 58 37191ft 496kts
14-Jan-20 11:29 35.846791 -112.194749 59 37181ft 495kts
14-Jan-20 11:30 35.914862 -112.045991 59 37185ft 495kts
14-Jan-20 11:31 35.982329 -111.897904 59 37188ft 495kts
14-Jan-20 11:32 36.049883 -111.748867 59 37191ft 496kts
14-Jan-20 11:33 36.116481 -111.601295 58 37185ft 496kts
14-Jan-20 11:34 36.183359 -111.452543 59 37148ft 497kts
14-Jan-20 11:35 36.250003 -111.303859 59 37101ft 496kts
14-Jan-20 11:36 36.316626 -111.154032 59 37105ft 495kts
14-Jan-20 11:37 36.383144 -111.004105 59 37108ft 495kts
14-Jan-20 11:38 36.449395 -110.854071 59 37111ft 495kts
14-Jan-20 11:39 36.515624 -110.703385 59 37114ft 496kts
14-Jan-20 11:40 36.581725 -110.552307 59 37117ft 496kts
14-Jan-20 11:41 36.647600 -110.400864 59 37120ft 497kts
14-Jan-20 11:42 36.712829 -110.250638 60 37160ft 496kts
14-Jan-20 11:44 36.778192 -110.099127 59 37209ft 495kts
14-Jan-20 11:45 36.856117 -109.958029 51 37213ft 493kts
14-Jan-20 11:46 36.935863 -109.818533 51 37216ft 494kts
14-Jan-20 11:47 37.015503 -109.678173 51 37216ft 497kts
14-Jan-20 11:48 37.095697 -109.536203 51 37226ft 503kts
14-Jan-20 11:49 37.177203 -109.391585 51 37219ft 509kts
14-Jan-20 11:50 37.258055 -109.247271 51 37203ft 511kts
14-Jan-20 11:51 37.339547 -109.101154 51 37177ft 513kts
14-Jan-20 11:52 37.421725 -108.953053 51 37134ft 515kts
14-Jan-20 11:53 37.503910 -108.804603 51 37130ft 517kts
14-Jan-20 11:54 37.585940 -108.655719 51 37136ft 518kts
14-Jan-20 11:55 37.668321 -108.505464 51 37138ft 519kts
14-Jan-20 11:56 37.750254 -108.355168 51 37135ft 520kts
14-Jan-20 11:57 37.830767 -108.206945 52 37108ft 519kts
14-Jan-20 11:58 37.912152 -108.056220 52 37110ft 519kts
14-Jan-20 11:59 37.994849 -107.902813 52 36274ft 534kts
14-Jan-20 12:00 38.078824 -107.745748 52 34752ft 540kts
14-Jan-20 12:01 38.163114 -107.588095 52 33192ft 540kts
14-Jan-20 12:02 38.246957 -107.430307 53 31639ft 536kts
14-Jan-20 12:02 38.314426 -107.302686 55 30337ft 532kts
14-Jan-20 12:04 38.407159 -107.126170 56 28252ft 517kts
14-Jan-20 12:05 38.476345 -106.968434 69 27515ft 505kts
14-Jan-20 12:05 38.518468 -106.839010 69 26190ft 443kts
14-Jan-20 12:07 38.572252 -106.673751 68 23994ft 423kts
14-Jan-20 12:07 38.609478 -106.559282 68 22431ft 413kts
14-Jan-20 12:08 38.652808 -106.425468 68 20560ft 401kts
14-Jan-20 12:10 38.700694 -106.276865 69 18405ft 389kts
14-Jan-20 12:10 38.734761 -106.170659 69 17180ft 371kts
14-Jan-20 12:11 38.772936 -106.054769 57 17176ft 341kts
14-Jan-20 12:12 38.832457 -105.962349 49 17202ft 332kts
14-Jan-20 12:13 38.892131 -105.871304 49 17201ft 348kts
14-Jan-20 12:15 38.971707 -105.748606 49 17162ft 408kts
14-Jan-20 12:15 39.033537 -105.652955 48 17308ft 420kts
14-Jan-20 12:16 39.108073 -105.537639 48 17635ft 426kts
14-Jan-20 12:17 39.183657 -105.420269 48 17123ft 417kts
14-Jan-20 12:18 39.256026 -105.307400 49 16249ft 401kts
14-Jan-20 12:19 39.331504 -105.204313 38 14255ft 379kts
14-Jan-20 12:20 39.406457 -105.122611 38 13028ft 347kts
14-Jan-20 12:21 39.489839 -105.058463 18 12931ft 355kts
14-Jan-20 12:22 39.579591 -105.011760 18 10970ft 334kts
14-Jan-20 12:23 39.663474 -104.965635 31 8945ft 326kts
14-Jan-20 12:24 39.681913 -104.874915 110 7691ft 217kts
14-Jan-20 12:25 39.645217 -104.853946 187 7088ft 130kts
14-Jan-20 12:26 39.608816 -104.852581 186 6405ft 131kts
14-Jan-20 12:27 39.579544 -104.851287 181 5889ft 78kts
14-Jan-20 12:28 39.572780 -104.849559 178 5889ft 18kts
14-Jan-20 12:29 39.571257 -104.848092 90 5889ft 0kts
14-Jan-20 12:30 39.571257 -104.848092 90 5889ft 0kts
14-Jan-20 12:31 39.571257 -104.848092 90 5889ft 0kts
14-Jan-20 12:32 39.571257 -104.848092 90 5889ft 0kts
14-Jan-20 12:33 39.571257 -104.848092 90 5889ft 0kts
14-Jan-20 12:34 39.571257 -104.848092 90 5889ft 0kts
14-Jan-20 12:35 39.571257 -104.848092 90 5889ft 0kts
14-Jan-20 12:36 39.571257 -104.848092 90 5889ft 0kts
14-Jan-20 12:37 39.571257 -104.848092 90 5889ft 0kts
14-Jan-20 12:38 39.571257 -104.848092 90 5889ft 0kts
14-Jan-20 12:39 39.571257 -104.848092 90 5889ft 0kts
14-Jan-20 12:40 39.571257 -104.848092 90 5889ft 0kts
14-Jan-20 12:41 39.571257 -104.848092 90 5889ft 0kts
14-Jan-20 12:42 39.571257 -104.848092 90 5889ft 0kts

Navigation Log

Ident Type
Flight plan parsing failed, navigation log unavailable